sensor_id;sensor_type;location;lat;lon;timestamp;P1;durP1;ratioP1;P2;durP2;ratioP2
7231;SDS011;3657;49.630;11.018;2023-05-29T00:01:37;6.30;;;6.10;;
7231;SDS011;3657;49.630;11.018;2023-05-29T00:04:05;6.57;;;6.27;;
7231;SDS011;3657;49.630;11.018;2023-05-29T00:06:32;6.10;;;5.90;;
7231;SDS011;3657;49.630;11.018;2023-05-29T00:09:00;6.50;;;6.30;;
7231;SDS011;3657;49.630;11.018;2023-05-29T00:11:27;5.70;;;5.50;;
7231;SDS011;3657;49.630;11.018;2023-05-29T00:13:53;6.47;;;6.17;;
7231;SDS011;3657;49.630;11.018;2023-05-29T00:16:21;5.67;;;5.47;;
7231;SDS011;3657;49.630;11.018;2023-05-29T00:18:48;5.90;;;5.60;;
7231;SDS011;3657;49.630;11.018;2023-05-29T00:21:17;5.67;;;5.47;;
7231;SDS011;3657;49.630;11.018;2023-05-29T00:23:44;5.93;;;5.73;;
7231;SDS011;3657;49.630;11.018;2023-05-29T00:26:11;6.23;;;6.00;;
7231;SDS011;3657;49.630;11.018;2023-05-29T00:28:41;5.30;;;5.10;;
7231;SDS011;3657;49.630;11.018;2023-05-29T00:31:08;5.37;;;5.07;;
7231;SDS011;3657;49.630;11.018;2023-05-29T00:33:36;5.83;;;5.63;;
7231;SDS011;3657;49.630;11.018;2023-05-29T00:36:03;6.43;;;6.23;;
7231;SDS011;3657;49.630;11.018;2023-05-29T00:38:30;6.93;;;6.67;;
7231;SDS011;3657;49.630;11.018;2023-05-29T00:40:57;6.03;;;5.83;;
7231;SDS011;3657;49.630;11.018;2023-05-29T00:43:25;6.07;;;5.77;;
7231;SDS011;3657;49.630;11.018;2023-05-29T00:45:52;5.80;;;5.60;;
7231;SDS011;3657;49.630;11.018;2023-05-29T00:48:19;5.60;;;5.40;;
7231;SDS011;3657;49.630;11.018;2023-05-29T00:50:45;6.30;;;6.10;;
7231;SDS011;3657;49.630;11.018;2023-05-29T00:53:13;5.13;;;4.93;;
7231;SDS011;3657;49.630;11.018;2023-05-29T00:55:40;6.40;;;6.10;;
7231;SDS011;3657;49.630;11.018;2023-05-29T00:58:07;5.97;;;5.77;;
7231;SDS011;3657;49.630;11.018;2023-05-29T01:00:36;6.83;;;6.53;;
7231;SDS011;3657;49.630;11.018;2023-05-29T01:03:03;5.57;;;5.37;;
7231;SDS011;3657;49.630;11.018;2023-05-29T01:05:33;6.10;;;5.90;;
7231;SDS011;3657;49.630;11.018;2023-05-29T01:08:00;5.30;;;5.10;;
7231;SDS011;3657;49.630;11.018;2023-05-29T01:10:27;5.63;;;5.43;;
7231;SDS011;3657;49.630;11.018;2023-05-29T01:12:56;6.27;;;5.97;;
7231;SDS011;3657;49.630;11.018;2023-05-29T01:15:29;5.93;;;5.57;;
7231;SDS011;3657;49.630;11.018;2023-05-29T01:18:12;5.40;;;5.20;;
7231;SDS011;3657;49.630;11.018;2023-05-29T01:20:48;5.37;;;5.07;;
7231;SDS011;3657;49.630;11.018;2023-05-29T01:23:34;5.43;;;5.00;;
7231;SDS011;3657;49.630;11.018;2023-05-29T01:26:17;5.30;;;5.10;;
7231;SDS011;3657;49.630;11.018;2023-05-29T01:28:53;4.70;;;4.50;;
7231;SDS011;3657;49.630;11.018;2023-05-29T01:31:23;5.57;;;5.37;;
7231;SDS011;3657;49.630;11.018;2023-05-29T01:33:52;5.57;;;5.37;;
7231;SDS011;3657;49.630;11.018;2023-05-29T01:36:19;4.93;;;4.77;;
7231;SDS011;3657;49.630;11.018;2023-05-29T01:38:46;4.77;;;4.67;;
7231;SDS011;3657;49.630;11.018;2023-05-29T01:41:13;5.10;;;4.90;;
7231;SDS011;3657;49.630;11.018;2023-05-29T01:43:40;5.37;;;5.07;;
7231;SDS011;3657;49.630;11.018;2023-05-29T01:46:09;4.93;;;4.83;;
7231;SDS011;3657;49.630;11.018;2023-05-29T01:48:36;5.43;;;5.23;;
7231;SDS011;3657;49.630;11.018;2023-05-29T01:51:03;5.23;;;5.03;;
7231;SDS011;3657;49.630;11.018;2023-05-29T01:53:30;5.50;;;5.30;;
7231;SDS011;3657;49.630;11.018;2023-05-29T01:55:57;4.60;;;4.50;;
7231;SDS011;3657;49.630;11.018;2023-05-29T01:58:24;5.03;;;4.83;;
7231;SDS011;3657;49.630;11.018;2023-05-29T02:00:52;5.80;;;5.50;;
7231;SDS011;3657;49.630;11.018;2023-05-29T02:03:21;5.77;;;5.57;;
7231;SDS011;3657;49.630;11.018;2023-05-29T02:05:48;4.10;;;4.00;;
7231;SDS011;3657;49.630;11.018;2023-05-29T02:08:15;5.50;;;5.30;;
7231;SDS011;3657;49.630;11.018;2023-05-29T02:10:42;5.20;;;5.00;;
7231;SDS011;3657;49.630;11.018;2023-05-29T02:13:08;4.27;;;4.07;;
7231;SDS011;3657;49.630;11.018;2023-05-29T02:15:35;5.90;;;5.70;;
7231;SDS011;3657;49.630;11.018;2023-05-29T02:18:02;5.63;;;5.43;;
7231;SDS011;3657;49.630;11.018;2023-05-29T02:20:30;4.90;;;4.70;;
7231;SDS011;3657;49.630;11.018;2023-05-29T02:22:57;5.80;;;5.60;;
7231;SDS011;3657;49.630;11.018;2023-05-29T02:25:23;5.40;;;5.20;;
7231;SDS011;3657;49.630;11.018;2023-05-29T02:27:50;6.07;;;5.87;;
7231;SDS011;3657;49.630;11.018;2023-05-29T02:30:17;4.90;;;4.80;;
7231;SDS011;3657;49.630;11.018;2023-05-29T02:32:43;6.30;;;5.80;;
7231;SDS011;3657;49.630;11.018;2023-05-29T02:35:10;5.33;;;5.23;;
7231;SDS011;3657;49.630;11.018;2023-05-29T02:37:40;6.07;;;5.77;;
7231;SDS011;3657;49.630;11.018;2023-05-29T02:40:07;6.30;;;6.00;;
7231;SDS011;3657;49.630;11.018;2023-05-29T02:42:34;5.77;;;5.57;;
7231;SDS011;3657;49.630;11.018;2023-05-29T02:45:01;5.73;;;5.53;;
7231;SDS011;3657;49.630;11.018;2023-05-29T02:47:28;4.83;;;4.63;;
7231;SDS011;3657;49.630;11.018;2023-05-29T02:49:54;5.47;;;5.27;;
7231;SDS011;3657;49.630;11.018;2023-05-29T02:52:21;5.17;;;5.07;;
7231;SDS011;3657;49.630;11.018;2023-05-29T02:54:49;6.03;;;5.83;;
7231;SDS011;3657;49.630;11.018;2023-05-29T02:57:16;6.17;;;5.87;;
7231;SDS011;3657;49.630;11.018;2023-05-29T02:59:43;5.70;;;5.40;;
7231;SDS011;3657;49.630;11.018;2023-05-29T03:02:10;5.70;;;5.50;;
7231;SDS011;3657;49.630;11.018;2023-05-29T03:04:37;5.63;;;5.43;;
7231;SDS011;3657;49.630;11.018;2023-05-29T03:07:04;6.27;;;6.07;;
7231;SDS011;3657;49.630;11.018;2023-05-29T03:09:31;4.87;;;4.70;;
7231;SDS011;3657;49.630;11.018;2023-05-29T03:11:59;6.17;;;5.97;;
7231;SDS011;3657;49.630;11.018;2023-05-29T03:14:27;5.53;;;5.33;;
7231;SDS011;3657;49.630;11.018;2023-05-29T03:16:53;5.40;;;5.20;;
7231;SDS011;3657;49.630;11.018;2023-05-29T03:19:21;6.20;;;6.00;;
7231;SDS011;3657;49.630;11.018;2023-05-29T03:21:48;6.63;;;6.33;;
7231;SDS011;3657;49.630;11.018;2023-05-29T03:24:15;5.67;;;5.47;;
7231;SDS011;3657;49.630;11.018;2023-05-29T03:26:42;6.10;;;5.90;;
7231;SDS011;3657;49.630;11.018;2023-05-29T03:29:10;6.10;;;5.80;;
7231;SDS011;3657;49.630;11.018;2023-05-29T03:31:37;6.13;;;5.93;;
7231;SDS011;3657;49.630;11.018;2023-05-29T03:34:04;5.93;;;5.73;;
7231;SDS011;3657;49.630;11.018;2023-05-29T03:36:30;5.80;;;5.60;;
7231;SDS011;3657;49.630;11.018;2023-05-29T03:38:57;7.07;;;6.77;;
7231;SDS011;3657;49.630;11.018;2023-05-29T03:41:23;5.70;;;5.50;;
7231;SDS011;3657;49.630;11.018;2023-05-29T03:43:50;5.17;;;4.97;;
7231;SDS011;3657;49.630;11.018;2023-05-29T03:46:18;5.87;;;5.67;;
7231;SDS011;3657;49.630;11.018;2023-05-29T03:48:45;5.83;;;5.63;;
7231;SDS011;3657;49.630;11.018;2023-05-29T03:51:12;5.83;;;5.63;;
7231;SDS011;3657;49.630;11.018;2023-05-29T03:53:39;5.97;;;5.77;;
7231;SDS011;3657;49.630;11.018;2023-05-29T03:56:05;6.00;;;5.80;;
7231;SDS011;3657;49.630;11.018;2023-05-29T03:58:32;5.30;;;5.10;;
7231;SDS011;3657;49.630;11.018;2023-05-29T04:00:59;5.77;;;5.47;;
7231;SDS011;3657;49.630;11.018;2023-05-29T04:03:27;5.43;;;5.23;;
7231;SDS011;3657;49.630;11.018;2023-05-29T04:05:54;6.47;;;6.27;;
7231;SDS011;3657;49.630;11.018;2023-05-29T04:08:21;6.77;;;6.57;;
7231;SDS011;3657;49.630;11.018;2023-05-29T04:10:48;5.83;;;5.63;;
7231;SDS011;3657;49.630;11.018;2023-05-29T04:13:18;5.47;;;5.27;;
7231;SDS011;3657;49.630;11.018;2023-05-29T04:15:45;5.60;;;5.40;;
7231;SDS011;3657;49.630;11.018;2023-05-29T04:18:12;7.13;;;6.13;;
7231;SDS011;3657;49.630;11.018;2023-05-29T04:20:40;5.30;;;5.03;;
7231;SDS011;3657;49.630;11.018;2023-05-29T04:23:07;6.67;;;6.17;;
7231;SDS011;3657;49.630;11.018;2023-05-29T04:25:34;5.97;;;5.77;;
7231;SDS011;3657;49.630;11.018;2023-05-29T04:28:01;6.00;;;5.80;;
7231;SDS011;3657;49.630;11.018;2023-05-29T04:30:28;6.60;;;6.40;;
7231;SDS011;3657;49.630;11.018;2023-05-29T04:32:57;6.03;;;5.83;;
7231;SDS011;3657;49.630;11.018;2023-05-29T04:35:24;5.57;;;5.37;;
7231;SDS011;3657;49.630;11.018;2023-05-29T04:37:54;6.63;;;6.33;;
7231;SDS011;3657;49.630;11.018;2023-05-29T04:40:21;5.80;;;5.60;;
7231;SDS011;3657;49.630;11.018;2023-05-29T04:42:48;5.90;;;5.60;;
7231;SDS011;3657;49.630;11.018;2023-05-29T04:45:15;5.57;;;5.00;;
7231;SDS011;3657;49.630;11.018;2023-05-29T04:47:45;5.77;;;5.57;;
7231;SDS011;3657;49.630;11.018;2023-05-29T04:50:12;5.60;;;5.40;;
7231;SDS011;3657;49.630;11.018;2023-05-29T04:52:39;5.97;;;5.73;;
7231;SDS011;3657;49.630;11.018;2023-05-29T04:55:08;5.87;;;5.57;;
7231;SDS011;3657;49.630;11.018;2023-05-29T04:57:35;6.00;;;5.80;;
7231;SDS011;3657;49.630;11.018;2023-05-29T05:00:02;5.80;;;5.60;;
7231;SDS011;3657;49.630;11.018;2023-05-29T05:02:32;5.80;;;5.60;;
7231;SDS011;3657;49.630;11.018;2023-05-29T05:04:58;6.60;;;6.40;;
7231;SDS011;3657;49.630;11.018;2023-05-29T05:07:25;6.70;;;6.50;;
7231;SDS011;3657;49.630;11.018;2023-05-29T05:09:52;5.90;;;5.70;;
7231;SDS011;3657;49.630;11.018;2023-05-29T05:12:20;5.37;;;5.17;;
7231;SDS011;3657;49.630;11.018;2023-05-29T05:14:46;7.27;;;6.93;;
7231;SDS011;3657;49.630;11.018;2023-05-29T05:17:13;6.23;;;6.03;;
7231;SDS011;3657;49.630;11.018;2023-05-29T05:19:40;6.13;;;5.83;;
7231;SDS011;3657;49.630;11.018;2023-05-29T05:22:06;6.23;;;6.03;;
7231;SDS011;3657;49.630;11.018;2023-05-29T05:24:33;6.23;;;5.90;;
7231;SDS011;3657;49.630;11.018;2023-05-29T05:27:00;5.53;;;5.33;;
7231;SDS011;3657;49.630;11.018;2023-05-29T05:29:28;6.47;;;6.27;;
7231;SDS011;3657;49.630;11.018;2023-05-29T05:31:55;5.57;;;5.37;;
7231;SDS011;3657;49.630;11.018;2023-05-29T05:34:21;6.40;;;6.17;;
7231;SDS011;3657;49.630;11.018;2023-05-29T05:36:48;5.37;;;5.20;;
7231;SDS011;3657;49.630;11.018;2023-05-29T05:39:15;7.10;;;6.70;;
7231;SDS011;3657;49.630;11.018;2023-05-29T05:41:41;7.67;;;7.23;;
7231;SDS011;3657;49.630;11.018;2023-05-29T05:44:08;5.27;;;4.97;;
7231;SDS011;3657;49.630;11.018;2023-05-29T05:46:36;6.97;;;6.60;;
7231;SDS011;3657;49.630;11.018;2023-05-29T05:49:03;6.87;;;6.57;;
7231;SDS011;3657;49.630;11.018;2023-05-29T05:51:30;6.13;;;5.93;;
7231;SDS011;3657;49.630;11.018;2023-05-29T05:53:56;6.53;;;6.23;;
7231;SDS011;3657;49.630;11.018;2023-05-29T05:56:23;6.00;;;5.80;;
7231;SDS011;3657;49.630;11.018;2023-05-29T05:58:51;5.80;;;5.60;;
7231;SDS011;3657;49.630;11.018;2023-05-29T06:01:17;10.93;;;7.87;;
7231;SDS011;3657;49.630;11.018;2023-05-29T06:03:45;6.10;;;5.67;;
7231;SDS011;3657;49.630;11.018;2023-05-29T06:06:12;5.97;;;5.77;;
7231;SDS011;3657;49.630;11.018;2023-05-29T06:08:39;6.43;;;6.13;;
7231;SDS011;3657;49.630;11.018;2023-05-29T06:11:06;6.77;;;6.53;;
7231;SDS011;3657;49.630;11.018;2023-05-29T06:13:33;6.83;;;6.23;;
7231;SDS011;3657;49.630;11.018;2023-05-29T06:15:59;5.93;;;5.63;;
7231;SDS011;3657;49.630;11.018;2023-05-29T06:18:26;5.33;;;5.17;;
7231;SDS011;3657;49.630;11.018;2023-05-29T06:20:54;7.27;;;7.00;;
7231;SDS011;3657;49.630;11.018;2023-05-29T06:23:21;6.20;;;6.00;;
7231;SDS011;3657;49.630;11.018;2023-05-29T06:25:48;5.03;;;4.90;;
7231;SDS011;3657;49.630;11.018;2023-05-29T06:28:14;6.77;;;6.40;;
7231;SDS011;3657;49.630;11.018;2023-05-29T06:30:41;4.40;;;4.20;;
7231;SDS011;3657;49.630;11.018;2023-05-29T06:33:08;6.40;;;6.20;;
7231;SDS011;3657;49.630;11.018;2023-05-29T06:35:35;6.50;;;6.20;;
7231;SDS011;3657;49.630;11.018;2023-05-29T06:38:03;6.20;;;6.00;;
7231;SDS011;3657;49.630;11.018;2023-05-29T06:40:29;5.23;;;5.03;;
7231;SDS011;3657;49.630;11.018;2023-05-29T06:42:56;5.70;;;5.40;;
7231;SDS011;3657;49.630;11.018;2023-05-29T06:45:23;4.73;;;4.63;;
7231;SDS011;3657;49.630;11.018;2023-05-29T06:47:50;5.43;;;5.23;;
7231;SDS011;3657;49.630;11.018;2023-05-29T06:50:16;6.13;;;5.83;;
7231;SDS011;3657;49.630;11.018;2023-05-29T06:52:43;5.53;;;5.33;;
7231;SDS011;3657;49.630;11.018;2023-05-29T06:55:11;6.27;;;6.07;;
7231;SDS011;3657;49.630;11.018;2023-05-29T06:57:38;5.00;;;4.80;;
7231;SDS011;3657;49.630;11.018;2023-05-29T07:00:05;6.07;;;5.77;;
7231;SDS011;3657;49.630;11.018;2023-05-29T07:02:34;5.10;;;4.90;;
7231;SDS011;3657;49.630;11.018;2023-05-29T07:05:00;7.20;;;6.90;;
7231;SDS011;3657;49.630;11.018;2023-05-29T07:07:27;5.57;;;5.37;;
7231;SDS011;3657;49.630;11.018;2023-05-29T07:09:54;6.03;;;5.73;;
7231;SDS011;3657;49.630;11.018;2023-05-29T07:12:22;5.37;;;5.17;;
7231;SDS011;3657;49.630;11.018;2023-05-29T07:14:49;5.57;;;5.27;;
7231;SDS011;3657;49.630;11.018;2023-05-29T07:17:16;5.40;;;5.30;;
7231;SDS011;3657;49.630;11.018;2023-05-29T07:19:42;5.17;;;4.87;;
7231;SDS011;3657;49.630;11.018;2023-05-29T07:22:09;5.40;;;5.20;;
7231;SDS011;3657;49.630;11.018;2023-05-29T07:24:36;6.10;;;5.90;;
7231;SDS011;3657;49.630;11.018;2023-05-29T07:27:02;6.13;;;5.93;;
7231;SDS011;3657;49.630;11.018;2023-05-29T07:29:31;4.97;;;4.83;;
7231;SDS011;3657;49.630;11.018;2023-05-29T07:31:58;6.80;;;6.50;;
7231;SDS011;3657;49.630;11.018;2023-05-29T07:34:25;5.73;;;5.50;;
7231;SDS011;3657;49.630;11.018;2023-05-29T07:36:58;5.10;;;5.00;;
7231;SDS011;3657;49.630;11.018;2023-05-29T07:39:26;6.07;;;5.87;;
7231;SDS011;3657;49.630;11.018;2023-05-29T07:41:53;6.07;;;5.87;;
7231;SDS011;3657;49.630;11.018;2023-05-29T07:44:19;5.67;;;5.47;;
7231;SDS011;3657;49.630;11.018;2023-05-29T07:46:48;6.43;;;6.07;;
7231;SDS011;3657;49.630;11.018;2023-05-29T07:49:15;5.17;;;4.97;;
7231;SDS011;3657;49.630;11.018;2023-05-29T07:51:41;5.67;;;5.47;;
7231;SDS011;3657;49.630;11.018;2023-05-29T07:54:08;5.70;;;5.50;;
7231;SDS011;3657;49.630;11.018;2023-05-29T07:56:35;6.37;;;6.17;;
7231;SDS011;3657;49.630;11.018;2023-05-29T07:59:02;5.60;;;5.40;;
7231;SDS011;3657;49.630;11.018;2023-05-29T08:01:29;5.73;;;5.53;;
7231;SDS011;3657;49.630;11.018;2023-05-29T08:03:57;5.67;;;5.47;;
7231;SDS011;3657;49.630;11.018;2023-05-29T08:06:23;4.67;;;4.37;;
7231;SDS011;3657;49.630;11.018;2023-05-29T08:08:50;5.10;;;4.90;;
7231;SDS011;3657;49.630;11.018;2023-05-29T08:11:17;6.33;;;6.00;;
7231;SDS011;3657;49.630;11.018;2023-05-29T08:13:44;5.80;;;5.60;;
7231;SDS011;3657;49.630;11.018;2023-05-29T08:16:11;6.00;;;5.60;;
7231;SDS011;3657;49.630;11.018;2023-05-29T08:18:39;5.00;;;4.80;;
7231;SDS011;3657;49.630;11.018;2023-05-29T08:21:07;5.73;;;5.37;;
7231;SDS011;3657;49.630;11.018;2023-05-29T08:23:35;5.20;;;4.83;;
7231;SDS011;3657;49.630;11.018;2023-05-29T08:26:02;5.37;;;5.17;;
7231;SDS011;3657;49.630;11.018;2023-05-29T08:28:28;5.97;;;5.67;;
7231;SDS011;3657;49.630;11.018;2023-05-29T08:30:55;5.03;;;4.83;;
7231;SDS011;3657;49.630;11.018;2023-05-29T08:33:22;5.10;;;4.90;;
7231;SDS011;3657;49.630;11.018;2023-05-29T08:35:49;5.03;;;4.93;;
7231;SDS011;3657;49.630;11.018;2023-05-29T08:38:17;5.00;;;4.60;;
7231;SDS011;3657;49.630;11.018;2023-05-29T08:40:45;6.10;;;5.90;;
7231;SDS011;3657;49.630;11.018;2023-05-29T08:43:14;4.80;;;4.60;;
7231;SDS011;3657;49.630;11.018;2023-05-29T08:45:42;4.73;;;4.60;;
7231;SDS011;3657;49.630;11.018;2023-05-29T08:48:10;4.90;;;4.80;;
7231;SDS011;3657;49.630;11.018;2023-05-29T08:50:39;4.60;;;4.50;;
7231;SDS011;3657;49.630;11.018;2023-05-29T08:53:10;6.67;;;6.27;;
7231;SDS011;3657;49.630;11.018;2023-05-29T08:55:39;5.20;;;5.00;;
7231;SDS011;3657;49.630;11.018;2023-05-29T08:58:06;4.03;;;3.93;;
7231;SDS011;3657;49.630;11.018;2023-05-29T09:00:33;5.57;;;5.37;;
7231;SDS011;3657;49.630;11.018;2023-05-29T09:03:00;4.50;;;4.40;;
7231;SDS011;3657;49.630;11.018;2023-05-29T09:05:28;4.73;;;4.43;;
7231;SDS011;3657;49.630;11.018;2023-05-29T09:07:55;5.30;;;5.00;;
7231;SDS011;3657;49.630;11.018;2023-05-29T09:10:22;5.70;;;5.50;;
7231;SDS011;3657;49.630;11.018;2023-05-29T09:12:52;5.17;;;4.87;;
7231;SDS011;3657;49.630;11.018;2023-05-29T09:15:19;5.13;;;4.83;;
7231;SDS011;3657;49.630;11.018;2023-05-29T09:17:50;4.67;;;4.47;;
7231;SDS011;3657;49.630;11.018;2023-05-29T09:20:18;4.20;;;4.10;;
7231;SDS011;3657;49.630;11.018;2023-05-29T09:22:52;5.13;;;4.93;;
7231;SDS011;3657;49.630;11.018;2023-05-29T09:25:19;3.90;;;3.63;;
7231;SDS011;3657;49.630;11.018;2023-05-29T09:27:50;4.87;;;4.67;;
7231;SDS011;3657;49.630;11.018;2023-05-29T09:30:30;4.57;;;4.30;;
7231;SDS011;3657;49.630;11.018;2023-05-29T09:32:59;4.63;;;4.53;;
7231;SDS011;3657;49.630;11.018;2023-05-29T09:35:27;4.60;;;4.40;;
7231;SDS011;3657;49.630;11.018;2023-05-29T09:37:58;4.70;;;4.50;;
7231;SDS011;3657;49.630;11.018;2023-05-29T09:40:25;4.95;;;4.75;;
7231;SDS011;3657;49.630;11.018;2023-05-29T09:42:54;5.97;;;5.57;;
7231;SDS011;3657;49.630;11.018;2023-05-29T09:45:20;5.50;;;5.30;;
7231;SDS011;3657;49.630;11.018;2023-05-29T09:47:50;5.03;;;4.93;;
7231;SDS011;3657;49.630;11.018;2023-05-29T09:50:18;4.75;;;4.55;;
7231;SDS011;3657;49.630;11.018;2023-05-29T09:52:46;5.27;;;4.97;;
7231;SDS011;3657;49.630;11.018;2023-05-29T09:55:17;4.82;;;4.63;;
7231;SDS011;3657;49.630;11.018;2023-05-29T09:57:46;5.15;;;4.85;;
7231;SDS011;3657;49.630;11.018;2023-05-29T10:00:15;5.10;;;4.90;;
7231;SDS011;3657;49.630;11.018;2023-05-29T10:02:44;4.72;;;4.43;;
7231;SDS011;3657;49.630;11.018;2023-05-29T10:05:11;4.22;;;4.07;;
7231;SDS011;3657;49.630;11.018;2023-05-29T10:07:43;4.70;;;4.60;;
7231;SDS011;3657;49.630;11.018;2023-05-29T10:10:13;4.50;;;4.30;;
7231;SDS011;3657;49.630;11.018;2023-05-29T10:12:42;4.88;;;4.72;;
7231;SDS011;3657;49.630;11.018;2023-05-29T10:15:11;5.50;;;5.30;;
7231;SDS011;3657;49.630;11.018;2023-05-29T10:17:42;5.05;;;4.85;;
7231;SDS011;3657;49.630;11.018;2023-05-29T10:20:16;4.47;;;4.18;;
7231;SDS011;3657;49.630;11.018;2023-05-29T10:22:45;4.40;;;4.30;;
7231;SDS011;3657;49.630;11.018;2023-05-29T10:25:13;4.38;;;4.28;;
7231;SDS011;3657;49.630;11.018;2023-05-29T10:27:43;4.78;;;4.57;;
7231;SDS011;3657;49.630;11.018;2023-05-29T10:30:12;5.05;;;4.85;;
7231;SDS011;3657;49.630;11.018;2023-05-29T10:32:50;5.53;;;5.32;;
7231;SDS011;3657;49.630;11.018;2023-05-29T10:35:31;4.75;;;4.45;;
7231;SDS011;3657;49.630;11.018;2023-05-29T10:38:10;4.85;;;4.68;;
7231;SDS011;3657;49.630;11.018;2023-05-29T10:40:40;4.15;;;4.00;;
7231;SDS011;3657;49.630;11.018;2023-05-29T10:43:07;4.75;;;4.55;;
7231;SDS011;3657;49.630;11.018;2023-05-29T10:45:48;4.85;;;4.65;;
7231;SDS011;3657;49.630;11.018;2023-05-29T10:51:07;4.45;;;4.25;;
7231;SDS011;3657;49.630;11.018;2023-05-29T10:53:35;4.65;;;4.45;;
7231;SDS011;3657;49.630;11.018;2023-05-29T10:56:07;5.78;;;3.95;;
7231;SDS011;3657;49.630;11.018;2023-05-29T10:58:37;4.78;;;4.68;;
7231;SDS011;3657;49.630;11.018;2023-05-29T11:01:05;4.43;;;4.22;;
7231;SDS011;3657;49.630;11.018;2023-05-29T11:03:34;4.43;;;4.22;;
7231;SDS011;3657;49.630;11.018;2023-05-29T11:06:03;4.90;;;4.70;;
7231;SDS011;3657;49.630;11.018;2023-05-29T11:08:33;4.20;;;4.10;;
7231;SDS011;3657;49.630;11.018;2023-05-29T11:11:00;4.80;;;4.47;;
7231;SDS011;3657;49.630;11.018;2023-05-29T11:13:31;4.72;;;4.53;;
7231;SDS011;3657;49.630;11.018;2023-05-29T11:16:09;4.25;;;4.05;;
7231;SDS011;3657;49.630;11.018;2023-05-29T11:18:41;4.13;;;4.03;;
7231;SDS011;3657;49.630;11.018;2023-05-29T11:24:00;4.03;;;3.83;;
7231;SDS011;3657;49.630;11.018;2023-05-29T11:26:29;4.00;;;3.70;;
7231;SDS011;3657;49.630;11.018;2023-05-29T11:28:57;4.45;;;4.25;;
7231;SDS011;3657;49.630;11.018;2023-05-29T11:31:25;4.32;;;4.13;;
7231;SDS011;3657;49.630;11.018;2023-05-29T11:33:56;3.40;;;3.30;;
7231;SDS011;3657;49.630;11.018;2023-05-29T11:36:26;3.88;;;3.78;;
7231;SDS011;3657;49.630;11.018;2023-05-29T11:38:54;3.90;;;3.70;;
7231;SDS011;3657;49.630;11.018;2023-05-29T11:41:22;3.72;;;3.63;;
7231;SDS011;3657;49.630;11.018;2023-05-29T11:43:58;4.15;;;4.05;;
7231;SDS011;3657;49.630;11.018;2023-05-29T11:46:26;3.97;;;3.88;;
7231;SDS011;3657;49.630;11.018;2023-05-29T11:48:56;4.13;;;4.03;;
7231;SDS011;3657;49.630;11.018;2023-05-29T11:51:22;4.85;;;4.55;;
7231;SDS011;3657;49.630;11.018;2023-05-29T11:53:49;3.75;;;3.45;;
7231;SDS011;3657;49.630;11.018;2023-05-29T11:56:24;4.00;;;3.80;;
7231;SDS011;3657;49.630;11.018;2023-05-29T11:58:51;3.65;;;3.50;;
7231;SDS011;3657;49.630;11.018;2023-05-29T12:01:20;3.97;;;3.67;;
7231;SDS011;3657;49.630;11.018;2023-05-29T12:03:48;4.18;;;3.97;;
7231;SDS011;3657;49.630;11.018;2023-05-29T12:06:15;4.88;;;4.57;;
7231;SDS011;3657;49.630;11.018;2023-05-29T12:08:42;5.30;;;4.95;;
7231;SDS011;3657;49.630;11.018;2023-05-29T12:11:09;4.50;;;4.30;;
7231;SDS011;3657;49.630;11.018;2023-05-29T12:13:37;3.72;;;3.63;;
7231;SDS011;3657;49.630;11.018;2023-05-29T12:16:04;4.55;;;4.35;;
7231;SDS011;3657;49.630;11.018;2023-05-29T12:18:31;4.30;;;4.20;;
7231;SDS011;3657;49.630;11.018;2023-05-29T12:20:59;4.10;;;4.00;;
7231;SDS011;3657;49.630;11.018;2023-05-29T12:23:27;3.72;;;3.53;;
7231;SDS011;3657;49.630;11.018;2023-05-29T12:25:54;4.18;;;4.07;;
7231;SDS011;3657;49.630;11.018;2023-05-29T12:28:21;5.00;;;4.70;;
7231;SDS011;3657;49.630;11.018;2023-05-29T12:30:50;3.85;;;3.75;;
7231;SDS011;3657;49.630;11.018;2023-05-29T12:33:27;7.55;;;4.60;;
7231;SDS011;3657;49.630;11.018;2023-05-29T12:36:00;4.20;;;4.00;;
7231;SDS011;3657;49.630;11.018;2023-05-29T12:38:28;4.35;;;4.25;;
7231;SDS011;3657;49.630;11.018;2023-05-29T12:40:55;4.00;;;3.63;;
7231;SDS011;3657;49.630;11.018;2023-05-29T12:43:22;4.18;;;3.88;;
7231;SDS011;3657;49.630;11.018;2023-05-29T12:45:55;4.10;;;3.90;;
7231;SDS011;3657;49.630;11.018;2023-05-29T12:48:25;4.75;;;4.13;;
7231;SDS011;3657;49.630;11.018;2023-05-29T12:50:52;3.92;;;3.83;;
7231;SDS011;3657;49.630;11.018;2023-05-29T12:53:19;3.78;;;3.47;;
7231;SDS011;3657;49.630;11.018;2023-05-29T12:55:46;4.32;;;4.22;;
7231;SDS011;3657;49.630;11.018;2023-05-29T12:58:13;4.18;;;4.05;;
7231;SDS011;3657;49.630;11.018;2023-05-29T13:00:41;3.80;;;3.60;;
7231;SDS011;3657;49.630;11.018;2023-05-29T13:03:11;3.88;;;3.78;;
7231;SDS011;3657;49.630;11.018;2023-05-29T13:05:39;4.35;;;4.03;;
7231;SDS011;3657;49.630;11.018;2023-05-29T13:08:06;4.35;;;4.15;;
7231;SDS011;3657;49.630;11.018;2023-05-29T13:10:33;4.30;;;4.10;;
7231;SDS011;3657;49.630;11.018;2023-05-29T13:13:00;4.03;;;3.58;;
7231;SDS011;3657;49.630;11.018;2023-05-29T13:15:27;4.38;;;4.18;;
7231;SDS011;3657;49.630;11.018;2023-05-29T13:17:54;3.42;;;3.13;;
7231;SDS011;3657;49.630;11.018;2023-05-29T13:20:22;4.20;;;3.90;;
7231;SDS011;3657;49.630;11.018;2023-05-29T13:22:48;4.28;;;4.05;;
7231;SDS011;3657;49.630;11.018;2023-05-29T13:25:16;3.88;;;3.72;;
7231;SDS011;3657;49.630;11.018;2023-05-29T13:27:45;4.00;;;3.90;;
7231;SDS011;3657;49.630;11.018;2023-05-29T13:30:14;3.83;;;3.72;;
7231;SDS011;3657;49.630;11.018;2023-05-29T13:32:41;4.47;;;4.18;;
7231;SDS011;3657;49.630;11.018;2023-05-29T13:35:08;4.63;;;4.47;;
7231;SDS011;3657;49.630;11.018;2023-05-29T13:37:36;4.60;;;4.50;;
7231;SDS011;3657;49.630;11.018;2023-05-29T13:40:04;4.28;;;4.07;;
7231;SDS011;3657;49.630;11.018;2023-05-29T13:42:34;4.50;;;4.30;;
7231;SDS011;3657;49.630;11.018;2023-05-29T13:45:00;3.13;;;3.03;;
7231;SDS011;3657;49.630;11.018;2023-05-29T13:47:28;4.13;;;4.03;;
7231;SDS011;3657;49.630;11.018;2023-05-29T13:49:57;3.53;;;3.22;;
7231;SDS011;3657;49.630;11.018;2023-05-29T13:52:24;4.13;;;3.92;;
7231;SDS011;3657;49.630;11.018;2023-05-29T13:54:52;4.28;;;4.13;;
7231;SDS011;3657;49.630;11.018;2023-05-29T13:57:19;4.22;;;4.07;;
7231;SDS011;3657;49.630;11.018;2023-05-29T13:59:46;4.20;;;4.10;;
7231;SDS011;3657;49.630;11.018;2023-05-29T14:02:12;5.10;;;4.68;;
7231;SDS011;3657;49.630;11.018;2023-05-29T14:04:39;5.13;;;4.93;;
7231;SDS011;3657;49.630;11.018;2023-05-29T14:07:07;3.50;;;3.40;;
7231;SDS011;3657;49.630;11.018;2023-05-29T14:09:34;4.45;;;4.22;;
7231;SDS011;3657;49.630;11.018;2023-05-29T14:12:02;4.43;;;4.32;;
7231;SDS011;3657;49.630;11.018;2023-05-29T14:14:29;4.45;;;4.15;;
7231;SDS011;3657;49.630;11.018;2023-05-29T14:16:56;3.80;;;3.70;;
7231;SDS011;3657;49.630;11.018;2023-05-29T14:19:22;3.95;;;3.75;;
7231;SDS011;3657;49.630;11.018;2023-05-29T14:21:49;4.20;;;4.10;;
7231;SDS011;3657;49.630;11.018;2023-05-29T14:24:16;3.83;;;3.60;;
7231;SDS011;3657;49.630;11.018;2023-05-29T14:26:43;3.75;;;3.65;;
7231;SDS011;3657;49.630;11.018;2023-05-29T14:29:13;5.15;;;4.68;;
7231;SDS011;3657;49.630;11.018;2023-05-29T14:31:40;4.07;;;3.90;;
7231;SDS011;3657;49.630;11.018;2023-05-29T14:34:07;3.25;;;3.15;;
7231;SDS011;3657;49.630;11.018;2023-05-29T14:36:34;4.50;;;4.30;;
7231;SDS011;3657;49.630;11.018;2023-05-29T14:39:02;3.60;;;3.50;;
7231;SDS011;3657;49.630;11.018;2023-05-29T14:41:29;3.53;;;3.42;;
7231;SDS011;3657;49.630;11.018;2023-05-29T14:43:56;4.70;;;4.35;;
7231;SDS011;3657;49.630;11.018;2023-05-29T14:46:25;3.78;;;3.58;;
7231;SDS011;3657;49.630;11.018;2023-05-29T14:48:53;3.65;;;3.55;;
7231;SDS011;3657;49.630;11.018;2023-05-29T14:51:20;4.50;;;4.30;;
7231;SDS011;3657;49.630;11.018;2023-05-29T14:53:48;5.07;;;4.88;;
7231;SDS011;3657;49.630;11.018;2023-05-29T14:56:14;4.47;;;4.18;;
7231;SDS011;3657;49.630;11.018;2023-05-29T14:58:42;4.10;;;4.00;;
7231;SDS011;3657;49.630;11.018;2023-05-29T15:01:09;4.70;;;4.57;;
7231;SDS011;3657;49.630;11.018;2023-05-29T15:03:37;3.55;;;3.25;;
7231;SDS011;3657;49.630;11.018;2023-05-29T15:06:04;4.68;;;4.47;;
7231;SDS011;3657;49.630;11.018;2023-05-29T15:08:32;5.10;;;4.93;;
7231;SDS011;3657;49.630;11.018;2023-05-29T15:11:00;5.57;;;5.38;;